Time;durP1;ratioP1;P1;durP2;ratioP2;P2;SDS_P1;SDS_P2;PMS_P1;PMS_P2;Temp;Humidity;BMP_temperature;BMP_pressure;BME280_temperature;BME280_humidity;BME280_pressure;Samples;Min_cycle;Max_cycle;Signal;HPM_P1;HPM_P2
2023/01/27 00:00:43;;;;;;;5.90;1.45;;;5.30;99.90;;;;;;5011324;28;20056;-44
2023/01/27 00:03:12;;;;;;;6.30;1.60;;;5.30;99.90;;;;;;4993596;28;20025;-45
2023/01/27 00:05:38;;;;;;;8.30;1.65;;;5.30;99.90;;;;;;5011447;28;20020;-43
2023/01/27 00:08:04;;;;;;;6.43;1.50;;;5.30;99.90;;;;;;5010883;28;20117;-48
2023/01/27 00:10:29;;;;;;;3.63;1.60;;;5.30;99.90;;;;;;5011117;28;20533;-47
2023/01/27 00:15:39;;;;;;;5.35;1.15;;;5.30;99.90;;;;;;5011233;28;20072;-38
2023/01/27 00:18:06;;;;;;;8.05;1.58;;;5.30;99.90;;;;;;4993203;28;20026;-37
2023/01/27 00:26:06;;;;;;;4.28;1.23;;;5.10;99.90;;;;;;5011376;28;20532;-41
2023/01/27 00:28:36;;;;;;;3.75;1.60;;;5.10;99.90;;;;;;5010285;28;20600;-46
2023/01/27 00:31:03;;;;;;;3.25;1.15;;;5.10;99.90;;;;;;5010924;28;20036;-37
2023/01/27 00:33:29;;;;;;;3.10;1.50;;;5.10;99.90;;;;;;5010797;28;20547;-40
2023/01/27 00:35:59;;;;;;;6.43;1.33;;;5.10;99.90;;;;;;5010678;28;20041;-41
2023/01/27 00:38:28;;;;;;;;;;;5.10;99.90;;;;;;5011260;28;20076;-45
2023/01/27 00:43:38;;;;;;;5.10;1.73;;;5.20;99.90;;;;;;5010518;28;20032;-38
2023/01/27 00:46:04;;;;;;;3.88;1.42;;;5.10;99.90;;;;;;5011003;28;20026;-37
2023/01/27 00:48:30;;;;;;;4.15;1.15;;;5.20;99.90;;;;;;5010761;28;20030;-37
2023/01/27 00:50:56;;;;;;;4.18;1.27;;;5.20;99.90;;;;;;5010796;28;20022;-37
2023/01/27 00:53:22;;;;;;;4.68;1.50;;;5.20;99.90;;;;;;5010847;28;20059;-44
2023/01/27 00:55:48;;;;;;;4.15;1.48;;;5.20;99.90;;;;;;5010713;28;20129;-48
2023/01/27 00:58:13;;;;;;;5.22;1.50;;;5.20;99.90;;;;;;5008056;28;20022;-41
2023/01/27 01:00:39;;;;;;;4.47;1.52;;;5.30;99.90;;;;;;5006195;28;20521;-38
2023/01/27 01:03:05;;;;;;;5.68;1.63;;;5.20;99.90;;;;;;5012123;28;20458;-46
2023/01/27 01:05:30;;;;;;;3.80;1.48;;;5.20;99.90;;;;;;5014763;28;20022;-51
2023/01/27 01:07:56;;;;;;;6.32;1.70;;;5.20;99.90;;;;;;5014312;28;20032;-48
2023/01/27 01:10:22;;;;;;;3.47;1.48;;;5.20;99.90;;;;;;5014632;28;20040;-45
2023/01/27 01:12:47;;;;;;;4.47;1.60;;;5.20;99.90;;;;;;5014247;28;20080;-41
2023/01/27 01:15:13;;;;;;;4.05;1.60;;;5.20;99.90;;;;;;5014552;28;20113;-52
2023/01/27 01:17:38;;;;;;;3.00;1.48;;;5.20;99.90;;;;;;5014494;28;20025;-41
2023/01/27 01:20:04;;;;;;;4.00;1.60;;;5.20;99.90;;;;;;5014276;28;20488;-52
2023/01/27 01:22:30;;;;;;;3.17;1.48;;;5.20;99.90;;;;;;4997070;28;20026;-47
2023/01/27 01:24:56;;;;;;;6.95;1.50;;;5.20;99.90;;;;;;5014264;28;20096;-40
2023/01/27 01:27:21;;;;;;;4.05;1.48;;;5.20;99.90;;;;;;5011686;28;20022;-53
2023/01/27 01:29:47;;;;;;;4.28;1.83;;;5.20;99.90;;;;;;5013444;28;20436;-46
2023/01/27 01:32:13;;;;;;;5.70;1.80;;;5.20;99.90;;;;;;5013936;28;20033;-51
2023/01/27 01:34:38;;;;;;;6.53;2.50;;;5.20;99.90;;;;;;5006395;28;20081;-40
2023/01/27 01:37:04;;;;;;;6.57;2.30;;;5.20;99.90;;;;;;4994797;28;20053;-46
2023/01/27 01:39:30;;;;;;;9.05;2.30;;;5.20;99.90;;;;;;4994418;28;20023;-50
2023/01/27 01:41:57;;;;;;;4.82;2.50;;;5.20;99.90;;;;;;4994354;28;20389;-40
2023/01/27 01:44:26;;;;;;;4.72;2.35;;;5.20;99.90;;;;;;5006147;28;20429;-42
2023/01/27 01:46:52;;;;;;;6.72;2.95;;;5.20;99.90;;;;;;5003297;28;20421;-44
2023/01/27 01:49:22;;;;;;;4.13;2.20;;;5.20;99.90;;;;;;5013706;28;20473;-39
2023/01/27 01:51:55;;;;;;;7.90;2.33;;;5.10;99.90;;;;;;5013800;28;20537;-41
2023/01/27 01:54:30;;;;;;;6.07;2.10;;;5.20;99.90;;;;;;5013561;28;20080;-42
2023/01/27 01:57:11;;;;;;;4.85;2.33;;;5.20;99.90;;;;;;5013791;28;20029;-51
2023/01/27 01:59:49;;;;;;;5.70;2.60;;;5.20;99.90;;;;;;5012972;28;20485;-40
2023/01/27 02:02:17;;;;;;;4.63;2.20;;;5.20;99.90;;;;;;5013592;28;20477;-46
2023/01/27 02:04:57;;;;;;;8.00;2.17;;;5.20;99.90;;;;;;5013419;28;20022;-41
2023/01/27 02:07:52;;;;;;;3.53;1.50;;;5.20;99.90;;;;;;5013485;28;20053;-38
2023/01/27 02:10:18;;;;;;;5.93;1.70;;;5.20;99.90;;;;;;5013448;28;20014;-42
2023/01/27 02:12:44;;;;;;;7.00;1.98;;;5.20;99.90;;;;;;5013246;28;20032;-45
2023/01/27 02:15:10;;;;;;;4.50;1.90;;;5.20;99.90;;;;;;5012631;28;20045;-41
2023/01/27 02:17:37;;;;;;;4.70;1.83;;;5.20;99.90;;;;;;5013157;28;20397;-49
2023/01/27 02:20:42;;;;;;;4.57;1.70;;;5.20;99.90;;;;;;5013201;28;20635;-45
2023/01/27 02:23:39;;;;;;;4.22;2.20;;;5.20;99.90;;;;;;5013212;28;20575;-37
2023/01/27 02:26:13;;;;;;;5.47;2.05;;;5.20;99.90;;;;;;5003430;28;20108;-47
2023/01/27 02:28:39;;;;;;;3.80;1.80;;;5.20;99.90;;;;;;5012683;28;20501;-44
2023/01/27 02:31:05;;;;;;;5.57;2.10;;;5.20;99.90;;;;;;5013131;28;20061;-47
2023/01/27 02:33:30;;;;;;;3.13;1.92;;;5.20;99.90;;;;;;5012988;28;20029;-44
2023/01/27 02:36:08;;;;;;;3.83;1.92;;;5.10;99.90;;;;;;5012674;28;20099;-45
2023/01/27 02:38:37;;;;;;;3.58;1.52;;;5.10;99.90;;;;;;5012999;28;20026;-47
2023/01/27 02:41:24;;;;;;;4.03;1.90;;;5.10;99.90;;;;;;5012915;28;20026;-43
2023/01/27 02:43:51;;;;;;;3.53;1.75;;;5.10;99.90;;;;;;5011224;28;20037;-47
2023/01/27 02:46:17;;;;;;;3.60;1.88;;;5.10;99.90;;;;;;4997214;28;20018;-37
2023/01/27 02:48:43;;;;;;;10.50;2.30;;;5.10;99.90;;;;;;4986852;28;20038;-37
2023/01/27 02:51:09;;;;;;;4.03;2.13;;;5.20;99.90;;;;;;4992960;28;20026;-44
2023/01/27 02:53:35;;;;;;;5.05;2.17;;;5.10;99.90;;;;;;4993121;28;20042;-38
2023/01/27 02:56:01;;;;;;;3.70;2.20;;;5.10;99.90;;;;;;4996179;28;20558;-38
2023/01/27 02:58:27;;;;;;;6.50;2.60;;;5.10;99.90;;;;;;4994165;28;20019;-42
2023/01/27 03:00:52;;;;;;;6.22;2.55;;;5.10;99.90;;;;;;4992907;28;20046;-41
2023/01/27 03:03:18;;;;;;;7.57;2.70;;;5.00;99.90;;;;;;4975278;28;20126;-37
2023/01/27 03:05:45;;;;;;;8.63;2.80;;;5.00;99.90;;;;;;4992812;28;20382;-41
2023/01/27 03:08:10;;;;;;;4.88;2.88;;;5.10;99.90;;;;;;4992691;28;20501;-39
2023/01/27 03:10:36;;;;;;;6.47;2.50;;;5.00;99.90;;;;;;4992786;28;20469;-37
2023/01/27 03:13:02;;;;;;;6.18;2.67;;;5.00;99.90;;;;;;4992543;28;20030;-42
2023/01/27 03:18:14;;;;;;;5.03;2.92;;;5.00;99.90;;;;;;4999447;28;20112;-44
2023/01/27 03:20:42;;;;;;;6.88;2.90;;;5.00;99.90;;;;;;4992421;28;20401;-37
2023/01/27 03:23:08;;;;;;;8.70;3.25;;;5.00;99.90;;;;;;4975115;28;20034;-39
2023/01/27 03:25:34;;;;;;;5.43;2.88;;;5.00;99.90;;;;;;4991580;28;20517;-37
2023/01/27 03:28:00;;;;;;;6.43;3.38;;;4.90;99.90;;;;;;4992344;28;20084;-37
2023/01/27 03:30:27;;;;;;;7.47;3.47;;;4.90;99.90;;;;;;4992261;28;20022;-38
2023/01/27 03:32:53;;;;;;;7.22;3.20;;;4.90;99.90;;;;;;4992395;28;20030;-50
2023/01/27 03:35:19;;;;;;;8.25;3.13;;;4.90;99.90;;;;;;4992069;28;20518;-42
2023/01/27 03:46:14;;;;;;;6.32;2.90;;;4.90;99.90;;;;;;4993456;28;20385;-45
2023/01/27 03:48:40;;;;;;;4.72;2.50;;;4.80;99.90;;;;;;5011668;28;20398;-44
2023/01/27 03:51:08;;;;;;;4.88;2.70;;;4.80;99.90;;;;;;5011473;28;20026;-45
2023/01/27 03:53:34;;;;;;;4.97;2.40;;;4.80;99.90;;;;;;4993940;28;20022;-41
2023/01/27 03:56:00;;;;;;;5.70;2.78;;;4.80;99.90;;;;;;5011375;28;20048;-54
2023/01/27 03:58:29;;;;;;;6.03;2.97;;;4.80;99.90;;;;;;5011388;28;20014;-43
2023/01/27 04:01:03;;;;;;;7.28;2.90;;;4.80;99.90;;;;;;5011314;28;20529;-42
2023/01/27 04:09:07;;;;;;;5.38;2.97;;;4.80;99.90;;;;;;5011679;28;20045;-52
2023/01/27 04:14:17;;;;;;;7.15;3.35;;;4.80;99.90;;;;;;5010405;28;20085;-43
2023/01/27 04:16:43;;;;;;;5.55;3.17;;;4.80;99.90;;;;;;5008291;28;20026;-37
2023/01/27 04:19:10;;;;;;;7.82;3.95;;;4.80;99.90;;;;;;5004039;28;20026;-36
2023/01/27 04:21:36;;;;;;;6.53;3.55;;;4.80;99.90;;;;;;5003146;28;20026;-39
2023/01/27 04:24:03;;;;;;;7.07;3.60;;;4.80;99.90;;;;;;4991317;28;20430;-50
2023/01/27 04:26:33;;;;;;;7.05;3.72;;;4.80;99.90;;;;;;4996798;28;20096;-51
2023/01/27 04:29:03;;;;;;;9.18;3.95;;;4.80;99.90;;;;;;5010642;28;20520;-48
2023/01/27 04:31:31;;;;;;;9.07;3.78;;;4.80;99.90;;;;;;4992149;28;20052;-50
2023/01/27 04:33:57;;;;;;;7.75;4.30;;;4.80;99.90;;;;;;4991508;28;20023;-51
2023/01/27 04:36:22;;;;;;;6.15;3.92;;;4.80;99.90;;;;;;4991912;28;20176;-51
2023/01/27 04:38:48;;;;;;;8.55;3.90;;;4.80;99.90;;;;;;4997912;28;20080;-58
2023/01/27 04:41:14;;;;;;;7.75;3.85;;;4.80;99.90;;;;;;4997766;28;20073;-45
2023/01/27 04:43:39;;;;;;;8.68;4.05;;;4.80;99.90;;;;;;4997823;28;20030;-40
2023/01/27 04:46:05;;;;;;;8.20;4.07;;;4.80;99.90;;;;;;5010591;28;20036;-57
2023/01/27 04:48:30;;;;;;;7.63;4.07;;;4.80;99.90;;;;;;4998743;28;20017;-41
2023/01/27 04:50:56;;;;;;;8.45;4.38;;;4.80;99.90;;;;;;4980302;28;20030;-48
2023/01/27 04:53:22;;;;;;;9.68;4.13;;;4.80;99.90;;;;;;5001326;28;20042;-43
2023/01/27 04:55:48;;;;;;;10.73;4.10;;;4.80;99.90;;;;;;5008677;28;20042;-46
2023/01/27 04:58:16;;;;;;;7.35;3.78;;;4.80;99.90;;;;;;4997636;28;20023;-47
2023/01/27 05:00:42;;;;;;;11.52;4.25;;;4.80;99.90;;;;;;4997775;28;20134;-37
2023/01/27 05:03:09;;;;;;;10.80;4.38;;;4.80;99.90;;;;;;4997707;28;20026;-41
2023/01/27 05:05:35;;;;;;;7.20;3.95;;;4.80;99.90;;;;;;4997769;28;20113;-41
2023/01/27 05:08:05;;;;;;;8.43;4.32;;;4.80;99.90;;;;;;4997717;28;20038;-44
2023/01/27 05:10:31;;;;;;;6.47;4.03;;;4.80;99.90;;;;;;4997494;28;20034;-50
2023/01/27 05:12:57;;;;;;;8.02;3.97;;;4.80;99.90;;;;;;4997744;28;20077;-54
2023/01/27 05:15:24;;;;;;;7.25;4.25;;;4.90;99.90;;;;;;4997478;28;20038;-41
2023/01/27 05:17:50;;;;;;;7.25;3.88;;;4.80;99.90;;;;;;4997593;28;20029;-51
2023/01/27 05:20:16;;;;;;;6.30;3.50;;;4.80;99.90;;;;;;5013637;28;20034;-40
2023/01/27 05:22:41;;;;;;;8.38;3.83;;;4.70;99.90;;;;;;5004335;28;20034;-50
2023/01/27 05:25:08;;;;;;;6.75;3.90;;;4.70;99.90;;;;;;5001569;28;20027;-46
2023/01/27 05:27:33;;;;;;;5.40;3.22;;;4.70;99.90;;;;;;4999757;28;20030;-46
2023/01/27 05:29:59;;;;;;;7.95;3.15;;;4.70;99.90;;;;;;5012948;28;20481;-50
2023/01/27 05:32:25;;;;;;;7.35;3.22;;;4.70;99.90;;;;;;5000034;28;20388;-43
2023/01/27 05:34:51;;;;;;;4.85;2.72;;;4.70;99.90;;;;;;5027249;28;20427;-38
2023/01/27 05:37:16;;;;;;;5.70;2.60;;;4.70;99.90;;;;;;5018964;28;20040;-40
2023/01/27 05:39:42;;;;;;;6.45;2.58;;;4.70;99.90;;;;;;5016830;28;20022;-37
2023/01/27 05:42:08;;;;;;;4.80;2.45;;;4.70;99.90;;;;;;5017029;28;20176;-41
2023/01/27 05:44:33;;;;;;;4.80;2.33;;;4.70;99.90;;;;;;5014385;28;20484;-37
2023/01/27 05:46:59;;;;;;;6.53;2.10;;;4.70;99.90;;;;;;5016980;28;20018;-48
2023/01/27 05:49:25;;;;;;;5.18;2.53;;;4.70;99.90;;;;;;5013035;28;20100;-43
2023/01/27 05:51:50;;;;;;;7.80;2.60;;;4.70;99.90;;;;;;5013612;28;20396;-38
2023/01/27 05:54:16;;;;;;;5.95;2.45;;;4.70;99.90;;;;;;5013477;28;20044;-36
2023/01/27 05:56:42;;;;;;;7.25;2.30;;;4.70;99.90;;;;;;5013671;28;20034;-45
2023/01/27 05:59:09;;;;;;;5.32;2.40;;;4.70;99.90;;;;;;5013630;28;20473;-41
2023/01/27 06:01:36;;;;;;;4.75;2.58;;;4.70;99.90;;;;;;5010947;28;20124;-47
2023/01/27 06:04:02;;;;;;;6.95;2.95;;;4.70;99.90;;;;;;5013499;28;20508;-38
2023/01/27 06:06:30;;;;;;;7.50;2.65;;;4.70;99.90;;;;;;5013141;28;20473;-46
2023/01/27 06:08:56;;;;;;;8.00;3.10;;;4.70;99.90;;;;;;5013491;28;20541;-48
2023/01/27 06:11:23;;;;;;;6.78;2.80;;;4.70;99.90;;;;;;5007212;28;20145;-39
2023/01/27 06:13:49;;;;;;;6.78;2.95;;;4.70;99.90;;;;;;4995785;28;20064;-51
2023/01/27 06:16:17;;;;;;;6.55;2.85;;;4.70;99.90;;;;;;5012901;28;20049;-37
2023/01/27 06:18:43;;;;;;;7.15;2.90;;;4.70;99.90;;;;;;5012651;28;20045;-37
2023/01/27 06:21:10;;;;;;;8.75;3.00;;;4.70;99.90;;;;;;5015314;28;20053;-37
2023/01/27 06:23:37;;;;;;;7.68;3.10;;;4.70;99.90;;;;;;5013152;28;20022;-38
2023/01/27 06:26:12;;;;;;;5.88;3.00;;;4.70;99.90;;;;;;5012928;28;20075;-45
2023/01/27 06:28:38;;;;;;;8.90;2.83;;;4.70;99.90;;;;;;5012610;28;20033;-44
2023/01/27 06:31:24;;;;;;;6.32;3.15;;;4.70;99.90;;;;;;5012753;28;20025;-45
2023/01/27 06:33:50;;;;;;;8.50;3.30;;;4.70;99.90;;;;;;5022001;28;20037;-42
2023/01/27 06:36:19;;;;;;;7.22;2.92;;;4.70;99.90;;;;;;5024816;28;20050;-46
2023/01/27 06:38:45;;;;;;;7.25;3.00;;;4.70;99.90;;;;;;5020409;28;20536;-41
2023/01/27 06:41:12;;;;;;;6.32;2.58;;;4.70;99.90;;;;;;5015296;28;20033;-40
2023/01/27 06:43:37;;;;;;;6.72;3.70;;;4.70;99.90;;;;;;5020523;28;20029;-40
2023/01/27 06:46:03;;;;;;;10.25;2.90;;;4.70;99.90;;;;;;5007459;28;20025;-37
2023/01/27 06:48:29;;;;;;;6.70;2.90;;;4.70;99.90;;;;;;5012450;28;20026;-38
2023/01/27 06:50:55;;;;;;;8.43;2.50;;;4.70;99.90;;;;;;5012686;28;20100;-40
2023/01/27 06:53:21;;;;;;;9.98;3.15;;;4.70;99.90;;;;;;5012634;28;20053;-40
2023/01/27 06:55:47;;;;;;;9.65;2.35;;;4.70;99.90;;;;;;5020538;28;20069;-48
2023/01/27 06:58:14;;;;;;;9.20;2.35;;;4.70;99.90;;;;;;5014319;28;20029;-46
2023/01/27 07:00:41;;;;;;;12.82;2.72;;;4.70;99.90;;;;;;5010993;28;20061;-40
2023/01/27 07:03:10;;;;;;;6.97;2.40;;;4.70;99.90;;;;;;5012347;28;20014;-50
2023/01/27 07:05:38;;;;;;;9.65;2.78;;;4.80;99.90;;;;;;4994557;28;20040;-47
2023/01/27 07:08:04;;;;;;;10.68;3.22;;;4.80;99.90;;;;;;5012362;28;20022;-44
2023/01/27 07:10:30;;;;;;;12.05;2.25;;;4.70;99.90;;;;;;5017903;28;20167;-47
2023/01/27 07:13:06;;;;;;;6.93;2.10;;;4.70;99.90;;;;;;5031430;28;20040;-51
2023/01/27 07:15:32;;;;;;;6.07;2.20;;;4.70;99.90;;;;;;4997207;28;20159;-41
2023/01/27 07:17:58;;;;;;;6.65;2.20;;;4.70;99.90;;;;;;5011673;28;20108;-42
2023/01/27 07:20:27;;;;;;;8.07;2.67;;;4.70;99.90;;;;;;5010427;28;20038;-46
2023/01/27 07:22:59;;;;;;;4.45;1.70;;;4.70;99.90;;;;;;4991632;28;20022;-42
2023/01/27 07:25:26;;;;;;;9.80;2.28;;;4.70;99.90;;;;;;4992426;28;20485;-39
2023/01/27 07:27:52;;;;;;;8.75;1.83;;;4.80;99.90;;;;;;4992249;28;20057;-49
2023/01/27 07:30:18;;;;;;;9.63;2.45;;;4.80;99.90;;;;;;4992576;28;20104;-49
2023/01/27 07:32:43;;;;;;;6.75;2.55;;;4.70;99.90;;;;;;4992176;28;20053;-50
2023/01/27 07:35:09;;;;;;;8.98;1.92;;;4.70;99.90;;;;;;5001985;28;20037;-50
2023/01/27 07:37:35;;;;;;;6.10;2.20;;;4.70;99.90;;;;;;4995867;28;20037;-41
2023/01/27 07:40:00;;;;;;;6.70;2.38;;;4.70;99.90;;;;;;4991911;28;20045;-43
2023/01/27 07:42:26;;;;;;;10.63;2.47;;;4.70;99.90;;;;;;4992040;28;20031;-46
2023/01/27 07:44:52;;;;;;;15.07;2.60;;;4.70;99.90;;;;;;4991908;28;20527;-45
2023/01/27 07:47:17;;;;;;;13.10;3.10;;;4.70;99.90;;;;;;5016807;28;20034;-52
2023/01/27 07:49:43;;;;;;;8.02;2.10;;;4.70;99.90;;;;;;5011001;28;20101;-49
2023/01/27 07:52:08;;;;;;;8.43;2.88;;;4.70;99.90;;;;;;5011421;28;20108;-46
2023/01/27 07:54:34;;;;;;;9.07;2.47;;;4.70;99.90;;;;;;5011129;28;20026;-46
2023/01/27 07:57:02;;;;;;;8.25;2.25;;;4.60;99.90;;;;;;5011311;28;20040;-37
2023/01/27 07:59:28;;;;;;;13.10;2.83;;;4.50;99.90;;;;;;5011218;28;20030;-37
2023/01/27 08:01:53;;;;;;;6.70;2.17;;;4.40;99.90;;;;;;5014677;28;20451;-37
2023/01/27 08:04:19;;;;;;;13.73;2.20;;;4.40;99.90;;;;;;5018702;28;20029;-38
2023/01/27 08:06:45;;;;;;;9.02;2.00;;;4.40;99.90;;;;;;5009280;28;20104;-39
2023/01/27 08:09:10;;;;;;;8.82;2.58;;;4.40;99.90;;;;;;5011363;28;20060;-45
2023/01/27 08:11:36;;;;;;;9.63;2.20;;;4.40;99.90;;;;;;5010543;28;20029;-42
2023/01/27 08:14:02;;;;;;;9.68;2.15;;;4.40;99.90;;;;;;5011187;28;20097;-40
2023/01/27 08:16:28;;;;;;;7.15;2.10;;;4.50;99.90;;;;;;5010944;28;20084;-41
2023/01/27 08:18:53;;;;;;;10.95;2.40;;;4.40;99.90;;;;;;5010812;28;20046;-38
2023/01/27 08:21:19;;;;;;;5.97;2.75;;;4.50;99.90;;;;;;5003320;28;20397;-36
2023/01/27 08:23:45;;;;;;;12.18;2.38;;;4.50;99.90;;;;;;4973885;28;20033;-42
2023/01/27 08:26:11;;;;;;;10.23;2.28;;;4.50;99.90;;;;;;4993412;28;20085;-50
2023/01/27 08:28:38;;;;;;;10.43;3.00;;;4.60;99.90;;;;;;4998911;28;20042;-40
2023/01/27 08:31:08;;;;;;;8.88;2.38;;;4.60;99.90;;;;;;4991381;28;20040;-37
2023/01/27 08:33:34;;;;;;;11.07;2.08;;;4.60;99.90;;;;;;4991408;28;20026;-46
2023/01/27 08:36:12;;;;;;;10.00;2.25;;;4.60;99.90;;;;;;4991176;28;20092;-46
2023/01/27 08:38:39;;;;;;;12.25;2.28;;;4.70;99.90;;;;;;5012009;28;20026;-39
2023/01/27 08:41:17;;;;;;;9.63;2.15;;;5.10;99.90;;;;;;5016529;28;20633;-47
2023/01/27 08:43:43;;;;;;;6.72;1.67;;;6.40;99.90;;;;;;5022705;28;20472;-43
2023/01/27 08:46:09;;;;;;;6.50;1.42;;;7.70;99.90;;;;;;5020998;28;20029;-38
2023/01/27 08:48:36;;;;;;;9.27;1.63;;;8.80;99.90;;;;;;5023469;28;20502;-38
2023/01/27 08:51:03;;;;;;;6.82;1.52;;;9.80;99.90;;;;;;5018945;28;20028;-39
2023/01/27 08:53:28;;;;;;;9.05;1.30;;;10.90;99.90;;;;;;5010758;28;20025;-40
2023/01/27 08:56:01;;;;;;;9.18;1.85;;;11.50;99.90;;;;;;5010953;28;20676;-45
2023/01/27 08:58:26;;;;;;;9.73;1.27;;;12.40;99.80;;;;;;4992793;28;20113;-46
2023/01/27 09:00:52;;;;;;;9.70;1.70;;;13.40;96.50;;;;;;5010693;28;20261;-52
2023/01/27 09:03:18;;;;;;;8.88;1.85;;;13.60;94.20;;;;;;5010427;28;20022;-37
2023/01/27 09:05:44;;;;;;;6.45;1.80;;;14.40;91.90;;;;;;5010533;28;20030;-38
2023/01/27 09:08:09;;;;;;;7.18;1.50;;;15.00;88.60;;;;;;5010971;28;20426;-38
2023/01/27 09:10:39;;;;;;;5.57;1.48;;;15.20;86.30;;;;;;5010635;28;20077;-42
2023/01/27 09:13:06;;;;;;;5.55;1.60;;;15.40;83.50;;;;;;5010499;28;20080;-38
2023/01/27 09:15:34;;;;;;;5.47;1.50;;;15.80;82.30;;;;;;5015255;28;20116;-37
2023/01/27 09:18:00;;;;;;;6.18;1.58;;;15.50;79.80;;;;;;5014561;28;20032;-42
2023/01/27 09:20:25;;;;;;;9.57;1.77;;;15.60;77.30;;;;;;5009717;28;20105;-37
2023/01/27 09:22:54;;;;;;;8.20;1.48;;;15.70;78.20;;;;;;4990419;28;20031;-40
2023/01/27 09:25:19;;;;;;;10.63;2.03;;;15.50;75.50;;;;;;4994336;28;20535;-44
2023/01/27 09:27:45;;;;;;;7.75;1.55;;;13.50;78.80;;;;;;4994641;28;20272;-40
2023/01/27 09:30:12;;;;;;;11.23;1.70;;;12.00;83.60;;;;;;4994654;28;20058;-39
2023/01/27 09:32:38;;;;;;;8.32;1.50;;;10.80;88.40;;;;;;4994215;28;20022;-36
2023/01/27 09:35:05;;;;;;;7.80;1.85;;;9.80;91.60;;;;;;4994308;28;20038;-45
2023/01/27 09:37:38;;;;;;;7.80;1.60;;;9.30;93.20;;;;;;4994372;28;20517;-50
2023/01/27 09:40:14;;;;;;;10.32;1.73;;;8.70;94.50;;;;;;4994477;28;20026;-42
2023/01/27 09:42:46;;;;;;;8.65;1.58;;;8.30;96.10;;;;;;4994330;28;20038;-45
2023/01/27 09:45:23;;;;;;;11.63;1.88;;;8.20;97.40;;;;;;4994341;28;20046;-40
2023/01/27 09:48:10;;;;;;;5.90;1.30;;;8.50;97.90;;;;;;4995481;28;20478;-49
2023/01/27 09:50:54;;;;;;;5.43;1.30;;;9.90;96.30;;;;;;5003050;28;20030;-45
2023/01/27 09:53:43;;;;;;;8.15;1.77;;;11.40;92.80;;;;;;4994009;28;20393;-36
2023/01/27 09:56:45;;;;;;;6.75;1.55;;;12.10;90.80;;;;;;4993975;28;20066;-45
2023/01/27 09:59:31;;;;;;;10.25;1.83;;;13.30;86.20;;;;;;4994027;28;20027;-50
2023/01/27 10:02:15;;;;;;;8.90;1.75;;;13.70;84.20;;;;;;4996683;28;20038;-47
2023/01/27 10:05:08;;;;;;;8.77;1.88;;;14.20;81.80;;;;;;5008113;28;20057;-44
2023/01/27 10:07:58;;;;;;;4.65;1.23;;;14.90;79.40;;;;;;5011948;28;20076;-43
2023/01/27 10:10:54;;;;;;;8.85;1.40;;;14.50;78.80;;;;;;5018221;28;20032;-53
2023/01/27 10:13:57;;;;;;;7.72;1.45;;;15.10;79.10;;;;;;5030237;28;20121;-40
2023/01/27 10:16:47;;;;;;;7.88;1.70;;;15.20;74.60;;;;;;5028039;28;20043;-37
2023/01/27 10:19:21;;;;;;;9.02;1.77;;;15.60;76.20;;;;;;5008784;28;20469;-45
2023/01/27 10:21:47;;;;;;;12.77;1.95;;;16.40;73.00;;;;;;5001598;28;20100;-41
2023/01/27 10:24:35;;;;;;;9.50;1.95;;;16.90;70.60;;;;;;4993449;28;20050;-38
2023/01/27 10:27:23;;;;;;;5.10;1.40;;;17.00;69.40;;;;;;5025276;28;20159;-38
2023/01/27 10:29:48;;;;;;;8.20;1.65;;;17.00;69.30;;;;;;5001419;28;20334;-38
2023/01/27 10:32:21;;;;;;;6.40;1.60;;;17.20;68.20;;;;;;5013026;28;20033;-41
2023/01/27 10:35:12;;;;;;;11.38;1.80;;;17.40;68.20;;;;;;5012505;28;20037;-37
2023/01/27 10:38:20;;;;;;;7.95;1.90;;;18.50;66.00;;;;;;4994983;28;20048;-40
2023/01/27 10:40:59;;;;;;;8.52;1.70;;;18.50;63.70;;;;;;4913929;29;20559;-42
2023/01/27 10:43:53;;;;;;;7.43;1.48;;;17.40;65.80;;;;;;5005833;28;20041;-41
2023/01/27 10:47:00;;;;;;;8.93;2.20;;;17.10;65.70;;;;;;5012227;28;20033;-37
2023/01/27 10:49:39;;;;;;;8.25;1.83;;;17.50;67.30;;;;;;4966220;28;20038;-43
2023/01/27 10:52:26;;;;;;;18.25;4.05;;;17.00;67.40;;;;;;5012380;28;20080;-47
2023/01/27 10:55:20;;;;;;;12.73;3.58;;;18.70;67.00;;;;;;5010501;28;20045;-47
2023/01/27 10:58:02;;;;;;;11.93;2.85;;;19.10;63.30;;;;;;5023000;28;20038;-49
2023/01/27 11:00:42;;;;;;;9.55;2.30;;;19.40;62.00;;;;;;5024239;28;20065;-41
2023/01/27 11:03:20;;;;;;;11.32;2.25;;;18.00;63.10;;;;;;5015181;28;20560;-46
2023/01/27 11:05:54;;;;;;;5.57;1.38;;;16.80;64.40;;;;;;5015218;28;20033;-54
2023/01/27 11:08:34;;;;;;;9.25;2.00;;;15.50;68.30;;;;;;5012047;28;20014;-45
2023/01/27 11:13:49;;;;;;;8.60;1.67;;;14.10;71.80;;;;;;5012461;28;20041;-53
2023/01/27 11:16:18;;;;;;;5.30;1.38;;;13.70;74.50;;;;;;5010927;28;20041;-53
2023/01/27 11:18:47;;;;;;;19.73;3.35;;;15.00;74.20;;;;;;5011668;28;20025;-45
2023/01/27 11:21:23;;;;;;;11.93;2.80;;;13.60;73.40;;;;;;5011879;28;20048;-42
2023/01/27 11:23:54;;;;;;;7.28;1.65;;;13.70;74.30;;;;;;5012094;28;20026;-42
2023/01/27 11:26:22;;;;;;;11.15;1.50;;;12.90;75.50;;;;;;5012198;28;20022;-45
2023/01/27 11:29:25;;;;;;;23.23;4.13;;;11.80;78.40;;;;;;5011922;28;20050;-49
2023/01/27 11:32:03;;;;;;;12.07;2.10;;;11.10;82.60;;;;;;5011725;28;20029;-36
2023/01/27 11:34:37;;;;;;;12.38;2.80;;;10.60;85.90;;;;;;5012093;28;20121;-39
2023/01/27 11:37:29;;;;;;;11.10;2.30;;;10.40;85.10;;;;;;5011743;28;20084;-48
2023/01/27 11:39:55;;;;;;;16.38;3.50;;;9.90;88.10;;;;;;5011741;28;20477;-50
2023/01/27 11:42:21;;;;;;;11.90;2.40;;;9.70;88.90;;;;;;5011847;28;20135;-44
2023/01/27 11:44:53;;;;;;;8.10;2.72;;;9.60;89.90;;;;;;5010420;28;20068;-44
2023/01/27 11:47:35;;;;;;;10.60;2.15;;;10.00;90.10;;;;;;5017524;28;20037;-42
2023/01/27 11:50:01;;;;;;;7.47;1.50;;;9.80;89.70;;;;;;5025541;28;20036;-41
2023/01/27 11:52:27;;;;;;;5.85;1.90;;;9.80;89.10;;;;;;5026050;28;20022;-51
2023/01/27 11:55:05;;;;;;;6.45;1.73;;;9.60;88.90;;;;;;5011444;28;20030;-49
2023/01/27 11:57:32;;;;;;;6.53;1.55;;;10.00;90.70;;;;;;4991869;28;20034;-41
2023/01/27 12:00:30;;;;;;;12.90;2.10;;;11.70;86.60;;;;;;5008171;28;20033;-48
2023/01/27 12:03:41;;;;;;;11.80;2.20;;;12.40;79.80;;;;;;4994357;28;20068;-42
2023/01/27 12:06:14;;;;;;;4.90;1.52;;;11.60;81.00;;;;;;4988719;28;20042;-48
2023/01/27 12:08:45;;;;;;;7.05;1.48;;;11.40;82.20;;;;;;4991695;28;20023;-42
2023/01/27 12:11:27;;;;;;;10.15;1.70;;;10.70;82.40;;;;;;4991651;28;20033;-41
2023/01/27 12:13:58;;;;;;;8.50;1.77;;;10.60;84.80;;;;;;4991906;28;20032;-47
2023/01/27 12:16:29;;;;;;;7.25;1.90;;;10.70;85.20;;;;;;4995738;28;20034;-48
2023/01/27 12:19:02;;;;;;;8.98;1.83;;;11.00;83.10;;;;;;5025523;28;20021;-49
2023/01/27 12:21:46;;;;;;;6.55;1.50;;;11.00;83.70;;;;;;5022199;28;20021;-49
2023/01/27 12:24:42;;;;;;;7.20;1.67;;;10.50;83.10;;;;;;5024810;28;20104;-56
2023/01/27 12:27:22;;;;;;;5.43;1.80;;;11.40;84.90;;;;;;5008139;28;20087;-48
2023/01/27 12:30:02;;;;;;;8.38;2.30;;;12.70;80.20;;;;;;5004850;28;20065;-44
2023/01/27 12:32:41;;;;;;;11.48;1.85;;;13.10;78.60;;;;;;5013639;28;20037;-47
2023/01/27 12:35:26;;;;;;;7.35;1.95;;;12.70;79.50;;;;;;5010310;28;20045;-38
2023/01/27 12:38:23;;;;;;;8.23;1.60;;;11.50;80.10;;;;;;5010675;28;20029;-44
2023/01/27 12:40:58;;;;;;;9.70;1.75;;;10.40;82.30;;;;;;4998336;28;20053;-43
2023/01/27 12:43:24;;;;;;;10.23;2.00;;;9.80;83.80;;;;;;5010575;28;20449;-40
2023/01/27 12:46:23;;;;;;;8.52;1.98;;;9.50;85.20;;;;;;5010770;28;20088;-39
2023/01/27 12:49:12;;;;;;;8.10;2.63;;;9.40;86.70;;;;;;5007201;28;20026;-41
2023/01/27 12:51:42;;;;;;;6.75;2.10;;;9.30;87.50;;;;;;5010714;28;20030;-47
2023/01/27 12:54:22;;;;;;;7.53;1.90;;;9.20;88.00;;;;;;5010508;28;20030;-43
2023/01/27 12:56:50;;;;;;;9.98;1.88;;;9.20;88.10;;;;;;5003560;28;20101;-43
2023/01/27 12:59:17;;;;;;;5.85;1.48;;;10.80;82.30;;;;;;5029856;28;20041;-51
2023/01/27 13:01:55;;;;;;;6.30;1.30;;;11.90;80.80;;;;;;5014000;28;20567;-41
2023/01/27 13:04:27;;;;;;;9.15;1.40;;;12.10;78.20;;;;;;5012521;28;20030;-45
2023/01/27 13:07:07;;;;;;;6.15;1.55;;;11.70;76.70;;;;;;5010811;28;20046;-37
2023/01/27 13:09:44;;;;;;;9.82;1.77;;;10.80;80.00;;;;;;5016868;28;20029;-42
2023/01/27 13:12:21;;;;;;;9.85;3.25;;;10.20;81.30;;;;;;5013339;28;20044;-42
2023/01/27 13:14:55;;;;;;;13.10;5.47;;;9.90;83.50;;;;;;5009459;28;20026;-50
2023/01/27 13:17:46;;;;;;;11.50;3.55;;;9.30;85.40;;;;;;5005419;28;20176;-40
2023/01/27 13:20:29;;;;;;;7.32;2.67;;;9.10;84.00;;;;;;5002031;28;20413;-38
2023/01/27 13:23:01;;;;;;;7.30;2.65;;;9.00;85.20;;;;;;4995324;28;20380;-41
2023/01/27 13:25:43;;;;;;;5.72;2.53;;;9.10;85.80;;;;;;5001733;28;20021;-49
2023/01/27 13:28:15;;;;;;;11.40;2.92;;;9.40;84.70;;;;;;5002474;28;20481;-53
2023/01/27 13:30:45;;;;;;;7.45;3.15;;;10.60;80.40;;;;;;5011255;28;20412;-52
2023/01/27 13:33:25;;;;;;;10.02;2.97;;;10.90;81.50;;;;;;5009917;28;20129;-41
2023/01/27 13:35:58;;;;;;;7.40;2.25;;;11.20;78.60;;;;;;5003889;28;20045;-41
2023/01/27 13:38:35;;;;;;;6.35;1.65;;;10.60;78.00;;;;;;4999614;28;20054;-39
2023/01/27 13:41:12;;;;;;;5.38;1.10;;;10.20;79.30;;;;;;5000267;28;20022;-36
2023/01/27 13:43:45;;;;;;;5.80;1.40;;;9.60;81.90;;;;;;5005017;28;20034;-44
2023/01/27 13:46:32;;;;;;;4.50;1.17;;;9.60;82.70;;;;;;5011111;28;20112;-43